Ramos Otero, Argentina
Current Conditions -  °F | °C
As of 4:12 AM on Saturday 25 Oct 2014 (Local Time) from SAZM Reporting Station
Haze Haze  
Wind Chill: 59°   Ceiling: 800
Heat Index: 59°   Visibility: 1mi
Dew Point: 57°   Wind: 7mph
Humidity: 94%   Direction: 340°NNW
Pressure: 29.97"   Gusts: NA
Location:  37.54°S, 58.34°W
Report Text: SAZM 250712Z 34006KT 1600 BR SCT004 OVC00815/14 Q1015
Loading
Personal Weather Stations






























Interactive Weather Map
Tropical Storm Tracking
New forecast layout! Learn more

10-Day Weather Forecast

Advertisements
Track Severe Weather on mobile